Time;durP1;ratioP1;P1;durP2;ratioP2;P2;SDS_P1;SDS_P2;PMS_P1;PMS_P2;Temp;Humidity;BMP_temperature;BMP_pressure;BME280_temperature;BME280_humidity;BME280_pressure;Samples;Min_cycle;Max_cycle;Signal;HPM_P1;HPM_P2
2021/09/05 00:01:45;;;;;;;21.10;13.95;;;14.60;99.90;;;;;;5029091;28;20536;-58
2021/09/05 00:04:11;;;;;;;25.60;15.65;;;14.60;99.90;;;;;;5043790;28;20014;-55
2021/09/05 00:06:36;;;;;;;20.67;15.02;;;14.60;99.90;;;;;;5049398;28;20064;-54
2021/09/05 00:09:03;;;;;;;19.52;14.23;;;14.60;99.90;;;;;;5050076;28;20052;-58
2021/09/05 00:11:28;;;;;;;21.67;14.90;;;14.60;99.90;;;;;;5049327;28;20021;-55
2021/09/05 00:13:54;;;;;;;17.85;13.48;;;14.60;99.90;;;;;;5047167;28;20082;-57
2021/09/05 00:16:19;;;;;;;22.67;13.95;;;14.60;99.90;;;;;;5047027;28;20082;-58
2021/09/05 00:18:48;;;;;;;19.27;13.60;;;14.60;99.90;;;;;;5048488;28;20551;-56
2021/09/05 00:21:13;;;;;;;21.05;13.13;;;14.60;99.90;;;;;;5031062;28;20021;-57
2021/09/05 00:23:39;;;;;;;19.35;14.57;;;14.60;99.90;;;;;;5045857;28;20054;-57
2021/09/05 00:26:05;;;;;;;19.80;12.98;;;14.60;99.90;;;;;;5049173;28;20037;-58
2021/09/05 00:28:30;;;;;;;21.83;13.30;;;14.60;99.90;;;;;;5052382;28;20025;-58
2021/09/05 00:30:56;;;;;;;20.52;13.02;;;14.50;99.90;;;;;;5050927;28;20028;-55
2021/09/05 00:33:21;;;;;;;19.05;13.35;;;14.60;99.90;;;;;;5047205;28;20021;-54
2021/09/05 00:35:47;;;;;;;19.17;12.60;;;14.60;99.90;;;;;;5048047;28;20495;-55
2021/09/05 00:38:12;;;;;;;15.60;12.18;;;14.60;99.90;;;;;;5050911;28;20537;-57
2021/09/05 00:40:38;;;;;;;16.88;12.07;;;14.70;99.90;;;;;;5050539;28;20037;-56
2021/09/05 00:43:03;;;;;;;18.02;12.40;;;14.80;99.90;;;;;;5049965;28;20056;-58
2021/09/05 00:45:29;;;;;;;19.33;11.82;;;14.80;99.90;;;;;;5057556;28;20033;-58
2021/09/05 00:47:55;;;;;;;20.15;12.27;;;14.80;99.90;;;;;;5052254;28;20024;-56
2021/09/05 00:50:20;;;;;;;17.42;11.82;;;14.80;99.90;;;;;;5042525;28;20481;-55
2021/09/05 00:52:46;;;;;;;17.35;12.35;;;14.70;99.90;;;;;;5046268;28;20040;-57
2021/09/05 00:55:11;;;;;;;17.67;12.63;;;14.70;99.90;;;;;;5046487;28;20076;-56
2021/09/05 00:57:38;;;;;;;20.77;13.57;;;14.60;99.90;;;;;;5052414;28;20033;-56
2021/09/05 01:00:04;;;;;;;15.52;12.00;;;14.50;99.90;;;;;;5047215;28;20021;-55
2021/09/05 01:02:30;;;;;;;18.50;12.63;;;14.50;99.90;;;;;;5040776;28;20448;-56
2021/09/05 01:04:55;;;;;;;17.92;12.88;;;14.40;99.90;;;;;;5048173;28;20032;-58
2021/09/05 01:07:21;;;;;;;17.42;12.60;;;14.40;99.90;;;;;;5041375;28;20492;-55
2021/09/05 01:09:46;;;;;;;16.23;12.25;;;14.30;99.90;;;;;;5049544;28;20025;-57
2021/09/05 01:12:12;;;;;;;17.40;13.40;;;14.30;99.90;;;;;;5051002;28;20411;-57
2021/09/05 01:14:38;;;;;;;28.75;13.85;;;14.30;99.90;;;;;;5047708;28;20040;-54
2021/09/05 01:17:03;;;;;;;16.83;12.18;;;14.30;99.90;;;;;;5050269;28;20029;-54
2021/09/05 01:19:29;;;;;;;19.00;12.48;;;14.30;99.90;;;;;;5049737;28;20099;-55
2021/09/05 01:21:54;;;;;;;17.35;12.18;;;14.30;99.90;;;;;;5046260;28;20044;-54
2021/09/05 01:24:22;;;;;;;19.90;12.98;;;14.30;99.90;;;;;;5047521;28;20025;-57
2021/09/05 01:26:50;;;;;;;20.35;13.85;;;14.20;99.90;;;;;;5046470;28;20499;-58
2021/09/05 01:29:17;;;;;;;20.10;13.00;;;14.20;99.90;;;;;;5047077;28;20032;-56
2021/09/05 01:31:45;;;;;;;20.38;13.10;;;14.20;99.90;;;;;;5045385;28;20029;-50
2021/09/05 01:34:14;;;;;;;16.92;12.15;;;14.10;99.90;;;;;;5048409;28;20108;-58
2021/09/05 01:36:41;;;;;;;19.48;13.23;;;14.00;99.90;;;;;;5045590;28;20033;-56
2021/09/05 01:39:08;;;;;;;17.85;12.75;;;14.00;99.90;;;;;;5044860;28;20384;-56
2021/09/05 01:41:34;;;;;;;20.20;12.57;;;14.00;99.90;;;;;;5046561;28;20019;-58
2021/09/05 01:44:05;;;;;;;17.77;13.38;;;14.00;99.90;;;;;;5062730;28;20104;-56
2021/09/05 01:46:31;;;;;;;18.35;13.35;;;14.00;99.90;;;;;;5045796;28;20025;-57
2021/09/05 01:48:57;;;;;;;19.55;13.70;;;14.00;99.90;;;;;;5047033;28;20032;-55
2021/09/05 01:51:23;;;;;;;21.27;13.75;;;14.00;99.90;;;;;;5048262;28;20039;-53
2021/09/05 01:53:48;;;;;;;17.42;12.82;;;14.00;99.90;;;;;;5046933;28;20057;-56
2021/09/05 01:56:14;;;;;;;20.90;13.55;;;13.90;99.90;;;;;;5042723;28;20492;-58
2021/09/05 01:58:40;;;;;;;19.60;14.10;;;13.90;99.90;;;;;;5048208;28;20028;-56
2021/09/05 02:01:06;;;;;;;24.73;14.65;;;13.90;99.90;;;;;;5046183;28;20783;-54
2021/09/05 02:03:31;;;;;;;26.27;14.52;;;13.80;99.90;;;;;;5048950;28;20024;-54
2021/09/05 02:05:57;;;;;;;20.60;13.98;;;13.80;99.90;;;;;;5045082;28;20033;-58
2021/09/05 02:08:22;;;;;;;17.17;13.20;;;13.80;99.90;;;;;;5046077;28;20487;-57
2021/09/05 02:10:48;;;;;;;20.00;14.05;;;13.80;99.90;;;;;;5042754;28;20029;-56
2021/09/05 02:13:14;;;;;;;23.48;14.35;;;13.80;99.90;;;;;;5050139;28;20067;-56
2021/09/05 02:15:40;;;;;;;20.67;13.77;;;13.70;99.90;;;;;;5044836;28;20284;-56
2021/09/05 02:18:05;;;;;;;19.73;14.07;;;13.60;99.90;;;;;;5038731;28;20025;-54
2021/09/05 02:20:32;;;;;;;24.58;13.60;;;13.60;99.90;;;;;;5041092;28;20025;-56
2021/09/05 02:22:57;;;;;;;20.50;13.68;;;13.60;99.90;;;;;;5049284;28;20032;-57
2021/09/05 02:25:23;;;;;;;25.27;14.57;;;13.60;99.90;;;;;;5047764;28;20029;-54
2021/09/05 02:27:49;;;;;;;26.27;14.68;;;13.60;99.90;;;;;;5028513;28;20052;-59
2021/09/05 02:30:15;;;;;;;21.58;14.15;;;13.60;99.90;;;;;;5049512;28;20155;-57
2021/09/05 02:32:40;;;;;;;20.00;14.02;;;13.60;99.90;;;;;;5045998;28;20029;-58
2021/09/05 02:35:07;;;;;;;17.83;13.02;;;13.60;99.90;;;;;;5045379;28;20033;-56
2021/09/05 02:37:35;;;;;;;17.52;12.80;;;13.70;99.90;;;;;;5046120;28;20032;-57
2021/09/05 02:40:01;;;;;;;18.90;12.60;;;13.80;99.90;;;;;;5045070;28;20029;-58
2021/09/05 02:42:27;;;;;;;20.23;12.98;;;13.80;99.90;;;;;;5040101;28;20029;-59
2021/09/05 02:44:52;;;;;;;20.48;13.45;;;13.80;99.90;;;;;;5046629;28;20515;-56
2021/09/05 02:47:18;;;;;;;19.23;12.95;;;13.80;99.90;;;;;;5042336;28;20037;-58
2021/09/05 02:49:43;;;;;;;20.55;12.93;;;13.80;99.90;;;;;;5045971;28;20029;-58
2021/09/05 02:52:12;;;;;;;18.20;12.90;;;13.80;99.90;;;;;;5038882;28;20025;-56
2021/09/05 02:54:38;;;;;;;23.63;14.30;;;13.70;99.90;;;;;;5043020;28;20028;-56
2021/09/05 02:57:05;;;;;;;19.50;13.15;;;13.70;99.90;;;;;;5047276;28;20107;-53
2021/09/05 02:59:32;;;;;;;21.40;13.50;;;13.70;99.90;;;;;;5044277;28;20048;-56
2021/09/05 03:01:58;;;;;;;18.58;13.07;;;13.70;99.90;;;;;;5049491;28;20458;-58
2021/09/05 03:04:25;;;;;;;20.75;14.00;;;13.60;99.90;;;;;;5048085;28;20057;-58
2021/09/05 03:06:50;;;;;;;21.65;13.43;;;13.60;99.90;;;;;;5046817;28;20029;-56
2021/09/05 03:09:16;;;;;;;17.50;13.02;;;13.60;99.90;;;;;;5041527;28;20029;-55
2021/09/05 03:11:42;;;;;;;21.92;14.77;;;13.60;99.90;;;;;;5045918;28;20040;-53
2021/09/05 03:14:07;;;;;;;26.98;14.23;;;13.50;99.90;;;;;;5046423;28;20025;-56
2021/09/05 03:16:33;;;;;;;22.65;14.77;;;13.50;99.90;;;;;;5042985;28;20451;-55
2021/09/05 03:18:58;;;;;;;24.15;15.05;;;13.40;99.90;;;;;;5045330;28;20037;-58
2021/09/05 03:21:24;;;;;;;23.85;14.43;;;13.40;99.90;;;;;;5043671;28;20441;-58
2021/09/05 03:23:50;;;;;;;28.17;14.57;;;13.40;99.90;;;;;;5047176;28;20470;-54
2021/09/05 03:26:15;;;;;;;18.92;14.38;;;13.30;99.90;;;;;;5048525;28;20396;-57
2021/09/05 03:28:41;;;;;;;25.73;15.23;;;13.30;99.90;;;;;;5045689;28;20037;-57
2021/09/05 03:31:06;;;;;;;22.70;14.55;;;13.30;99.90;;;;;;5047658;28;20098;-53
2021/09/05 03:33:32;;;;;;;24.65;14.10;;;13.30;99.90;;;;;;5035922;28;20098;-56
2021/09/05 03:35:57;;;;;;;20.35;13.88;;;13.30;99.90;;;;;;5048050;28;20115;-58
2021/09/05 03:38:23;;;;;;;27.33;15.25;;;13.30;99.90;;;;;;5048611;28;20025;-56
2021/09/05 03:40:48;;;;;;;22.48;14.70;;;13.30;99.90;;;;;;5046130;28;20037;-56
2021/09/05 03:43:14;;;;;;;21.48;14.55;;;13.30;99.90;;;;;;5046300;28;20535;-57
2021/09/05 03:45:39;;;;;;;24.25;15.27;;;13.30;99.90;;;;;;5048241;28;20040;-57
2021/09/05 03:48:05;;;;;;;24.02;13.82;;;13.30;99.90;;;;;;5046878;28;20124;-58
2021/09/05 03:50:30;;;;;;;29.10;14.38;;;13.30;99.90;;;;;;5046231;28;20032;-57
2021/09/05 03:52:56;;;;;;;21.63;14.48;;;13.30;99.90;;;;;;5047244;28;20156;-57
2021/09/05 03:55:22;;;;;;;18.60;13.70;;;13.20;99.90;;;;;;5051681;28;20033;-56
2021/09/05 03:57:47;;;;;;;21.50;14.25;;;13.20;99.90;;;;;;5048676;28;20036;-58
2021/09/05 04:00:14;;;;;;;21.15;14.13;;;13.20;99.90;;;;;;5044964;28;20032;-58
2021/09/05 04:02:39;;;;;;;21.77;13.85;;;13.10;99.90;;;;;;5032645;28;20126;-54
2021/09/05 04:05:07;;;;;;;22.13;14.73;;;13.10;99.90;;;;;;5052244;28;20052;-57
2021/09/05 04:07:34;;;;;;;22.23;14.13;;;13.10;99.90;;;;;;5050894;28;20050;-57
2021/09/05 04:10:09;;;;;;;19.88;14.43;;;13.10;99.90;;;;;;5047951;28;20013;-57
2021/09/05 04:12:38;;;;;;;21.08;13.98;;;13.00;99.90;;;;;;5048869;28;20032;-55
2021/09/05 04:15:04;;;;;;;19.95;14.75;;;12.90;99.90;;;;;;5041595;28;20025;-56
2021/09/05 04:17:30;;;;;;;20.23;13.63;;;12.80;99.90;;;;;;5045059;28;20017;-56
2021/09/05 04:19:55;;;;;;;22.17;15.02;;;12.90;99.90;;;;;;5047864;28;20104;-56
2021/09/05 04:22:21;;;;;;;26.30;17.35;;;12.80;99.90;;;;;;5048897;28;20025;-55
2021/09/05 04:24:47;;;;;;;24.95;15.68;;;12.70;99.90;;;;;;5047181;28;20032;-57
2021/09/05 04:27:12;;;;;;;25.60;16.10;;;12.70;99.90;;;;;;5047154;28;20025;-55
2021/09/05 04:29:38;;;;;;;22.17;14.73;;;12.70;99.90;;;;;;5048650;28;20037;-55
2021/09/05 04:32:04;;;;;;;24.23;17.55;;;12.70;99.90;;;;;;5047261;28;20558;-58
2021/09/05 04:34:29;;;;;;;24.83;16.20;;;12.70;99.90;;;;;;5049890;28;20051;-56
2021/09/05 04:36:55;;;;;;;26.70;15.70;;;12.70;99.90;;;;;;5045722;28;20029;-55
2021/09/05 04:39:20;;;;;;;26.40;16.30;;;12.60;99.90;;;;;;5048316;28;20506;-55
2021/09/05 04:41:46;;;;;;;24.65;16.17;;;12.60;99.90;;;;;;5046205;28;20605;-58
2021/09/05 04:44:12;;;;;;;20.73;15.75;;;12.60;99.90;;;;;;5042334;28;20022;-57
2021/09/05 04:46:38;;;;;;;23.38;15.98;;;12.60;99.90;;;;;;5051658;28;20120;-57
2021/09/05 04:49:04;;;;;;;25.35;17.02;;;12.60;99.90;;;;;;5046229;28;20025;-59
2021/09/05 04:51:30;;;;;;;21.65;16.08;;;12.60;99.90;;;;;;5050495;28;20091;-56
2021/09/05 04:53:55;;;;;;;27.05;15.55;;;12.70;99.90;;;;;;5043779;28;20029;-56
2021/09/05 04:56:21;;;;;;;24.90;15.55;;;12.70;99.90;;;;;;5049634;28;20025;-57
2021/09/05 04:58:46;;;;;;;21.17;15.50;;;12.70;99.90;;;;;;5049535;28;20155;-57
2021/09/05 05:01:12;;;;;;;24.25;15.38;;;12.70;99.90;;;;;;5048905;28;20036;-56
2021/09/05 05:03:38;;;;;;;23.73;15.00;;;12.70;99.90;;;;;;5040278;28;20044;-58
2021/09/05 05:06:07;;;;;;;27.88;15.23;;;12.80;99.90;;;;;;5054343;28;20091;-56
2021/09/05 05:08:33;;;;;;;21.95;15.32;;;12.80;99.90;;;;;;5064626;28;20028;-56
2021/09/05 05:10:59;;;;;;;25.08;14.50;;;12.70;99.90;;;;;;5052179;28;20524;-58
2021/09/05 05:13:25;;;;;;;26.08;15.40;;;12.70;99.90;;;;;;5045242;28;20036;-54
2021/09/05 05:15:52;;;;;;;24.23;15.13;;;12.60;99.90;;;;;;5044129;28;20029;-58
2021/09/05 05:18:17;;;;;;;24.40;16.33;;;12.70;99.90;;;;;;5042739;28;20048;-57
2021/09/05 05:20:43;;;;;;;24.98;16.10;;;12.70;99.90;;;;;;5042038;28;20053;-55
2021/09/05 05:23:08;;;;;;;20.92;15.82;;;12.70;99.90;;;;;;5047571;28;20100;-56
2021/09/05 05:25:34;;;;;;;23.27;15.13;;;12.80;99.90;;;;;;5047941;28;20701;-56
2021/09/05 05:28:00;;;;;;;24.63;15.85;;;12.80;99.90;;;;;;5041706;28;20037;-58
2021/09/05 05:30:25;;;;;;;21.55;14.23;;;12.90;99.90;;;;;;5044233;28;20520;-58
2021/09/05 05:32:51;;;;;;;25.92;14.63;;;13.00;99.90;;;;;;5046263;28;20029;-57
2021/09/05 05:35:17;;;;;;;22.77;14.48;;;13.00;99.90;;;;;;5049213;28;20027;-54
2021/09/05 05:37:42;;;;;;;21.77;15.00;;;13.10;99.90;;;;;;5048653;28;20055;-59
2021/09/05 05:40:09;;;;;;;22.70;14.68;;;13.20;99.90;;;;;;5046486;28;20036;-55
2021/09/05 05:42:35;;;;;;;23.45;14.63;;;13.30;99.90;;;;;;5050592;28;20025;-57
2021/09/05 05:45:00;;;;;;;21.58;14.43;;;13.40;99.90;;;;;;5044439;28;20048;-56
2021/09/05 05:47:29;;;;;;;19.77;14.05;;;13.50;99.90;;;;;;5049982;28;20040;-57
2021/09/05 05:49:54;;;;;;;21.35;13.45;;;13.70;99.90;;;;;;5049331;28;20439;-57
2021/09/05 05:52:20;;;;;;;20.73;13.85;;;13.90;99.90;;;;;;5050307;28;20021;-57
2021/09/05 05:54:46;;;;;;;23.13;14.88;;;14.10;99.90;;;;;;5044151;28;20476;-54
2021/09/05 05:57:11;;;;;;;24.15;14.77;;;14.30;99.90;;;;;;5044490;28;20053;-59
2021/09/05 05:59:38;;;;;;;25.30;16.15;;;14.50;99.90;;;;;;5045115;28;20079;-57
2021/09/05 06:02:03;;;;;;;20.45;14.55;;;14.70;99.90;;;;;;5043138;28;20021;-51
2021/09/05 06:04:29;;;;;;;24.27;15.15;;;14.90;99.90;;;;;;5031349;28;20128;-56
2021/09/05 06:06:55;;;;;;;23.98;14.07;;;15.10;99.90;;;;;;5043149;28;20025;-56
2021/09/05 06:09:20;;;;;;;22.13;15.85;;;15.30;99.90;;;;;;5044315;28;20503;-53
2021/09/05 06:11:46;;;;;;;21.25;13.98;;;15.60;99.90;;;;;;5049331;28;20037;-59
2021/09/05 06:14:11;;;;;;;20.80;14.48;;;15.90;99.90;;;;;;5044256;28;20057;-58
2021/09/05 06:16:37;;;;;;;23.20;14.63;;;16.20;99.90;;;;;;5044376;28;20077;-59
2021/09/05 06:19:03;;;;;;;19.88;13.57;;;16.50;99.90;;;;;;5049063;28;20033;-57
2021/09/05 06:21:28;;;;;;;18.75;13.50;;;16.60;99.90;;;;;;5038863;28;20029;-57
2021/09/05 06:23:55;;;;;;;23.80;13.85;;;16.70;99.90;;;;;;5040727;28;20075;-56
2021/09/05 06:26:21;;;;;;;17.92;12.70;;;16.70;99.90;;;;;;5037227;28;20060;-57
2021/09/05 06:28:46;;;;;;;15.32;12.10;;;16.80;99.90;;;;;;5042792;28;20468;-58
2021/09/05 06:31:12;;;;;;;21.42;13.45;;;17.00;99.90;;;;;;5044847;28;20028;-58
2021/09/05 06:33:38;;;;;;;17.17;12.30;;;17.20;99.90;;;;;;5044996;28;20029;-57
2021/09/05 06:36:04;;;;;;;18.90;13.07;;;17.40;99.90;;;;;;5048992;28;20496;-57
2021/09/05 06:38:29;;;;;;;18.42;13.15;;;17.50;99.90;;;;;;5042121;28;20063;-57
2021/09/05 06:40:55;;;;;;;17.65;11.95;;;17.30;99.90;;;;;;5041782;28;20395;-57
2021/09/05 06:43:20;;;;;;;15.98;11.95;;;17.30;99.90;;;;;;5042705;28;20067;-52
2021/09/05 06:45:46;;;;;;;16.92;10.90;;;17.70;99.90;;;;;;5044416;28;20408;-55
2021/09/05 06:48:12;;;;;;;17.65;10.65;;;18.30;99.90;;;;;;5038585;28;20022;-58
2021/09/05 06:50:37;;;;;;;16.45;10.57;;;18.90;99.90;;;;;;5038148;28;20025;-58
2021/09/05 06:53:03;;;;;;;15.77;9.95;;;19.60;99.90;;;;;;5049845;28;20067;-57
2021/09/05 06:55:28;;;;;;;15.93;10.48;;;20.20;99.90;;;;;;5045070;28;20083;-59
2021/09/05 06:57:54;;;;;;;14.45;10.10;;;20.70;99.90;;;;;;5043938;28;20032;-58
2021/09/05 07:00:20;;;;;;;13.90;9.73;;;21.40;99.90;;;;;;5039445;28;20029;-59
2021/09/05 07:02:45;;;;;;;18.38;10.93;;;22.30;99.30;;;;;;5047661;28;20029;-59
2021/09/05 07:05:11;;;;;;;15.90;11.25;;;22.80;98.40;;;;;;5022913;28;20496;-58
2021/09/05 07:07:37;;;;;;;15.93;11.20;;;23.40;97.30;;;;;;5041772;28;20421;-56
2021/09/05 07:10:03;;;;;;;13.80;10.15;;;24.10;96.10;;;;;;5046747;28;20571;-59
2021/09/05 07:12:29;;;;;;;16.27;10.68;;;24.70;94.90;;;;;;5045589;28;20029;-60
2021/09/05 07:14:54;;;;;;;13.98;10.70;;;25.00;94.10;;;;;;5037609;28;20496;-60
2021/09/05 07:17:20;;;;;;;16.77;10.70;;;25.00;94.30;;;;;;5048867;28;20040;-53
2021/09/05 07:19:45;;;;;;;16.30;11.55;;;26.00;93.40;;;;;;5052957;28;20025;-59
2021/09/05 07:22:11;;;;;;;13.90;10.48;;;27.10;91.00;;;;;;5050607;28;20519;-58
2021/09/05 07:24:36;;;;;;;12.13;10.52;;;27.30;91.10;;;;;;5047490;28;20025;-60
2021/09/05 07:27:02;;;;;;;14.82;10.60;;;27.40;90.60;;;;;;5042352;28;20028;-59
2021/09/05 07:29:28;;;;;;;13.18;11.40;;;27.10;90.60;;;;;;5047137;28;20545;-54
2021/09/05 07:31:53;;;;;;;21.50;11.35;;;26.70;89.30;;;;;;5048923;28;20412;-60
2021/09/05 07:34:19;;;;;;;17.02;11.23;;;26.30;89.70;;;;;;5048427;28;20087;-59
2021/09/05 07:36:44;;;;;;;17.52;10.93;;;26.30;90.70;;;;;;5044129;28;20029;-59
2021/09/05 07:39:10;;;;;;;12.73;11.10;;;26.50;90.20;;;;;;5044235;28;20029;-59
2021/09/05 07:41:36;;;;;;;16.70;11.40;;;26.80;90.10;;;;;;5046440;28;20025;-61
2021/09/05 07:44:02;;;;;;;15.30;11.88;;;27.10;89.40;;;;;;5043642;28;20255;-59
2021/09/05 07:46:28;;;;;;;13.40;10.48;;;27.40;89.00;;;;;;5050569;28;20025;-58
2021/09/05 07:48:53;;;;;;;13.57;11.80;;;27.50;88.60;;;;;;5038558;28;20036;-60
2021/09/05 07:51:23;;;;;;;13.63;11.27;;;27.60;87.00;;;;;;5046360;28;20037;-59
2021/09/05 07:53:53;;;;;;;13.85;10.73;;;28.00;84.30;;;;;;5040651;28;20049;-61
2021/09/05 07:56:19;;;;;;;16.58;11.27;;;28.20;84.80;;;;;;5052630;28;20075;-60
2021/09/05 07:58:45;;;;;;;14.07;11.65;;;28.30;83.90;;;;;;5049107;28;20025;-59
2021/09/05 08:01:10;;;;;;;14.27;11.10;;;28.60;83.70;;;;;;5050212;28;20472;-60
2021/09/05 08:03:39;;;;;;;13.38;11.05;;;28.80;82.10;;;;;;5045672;28;20028;-60
2021/09/05 08:06:05;;;;;;;15.65;12.48;;;28.70;83.70;;;;;;5056808;28;20072;-60
2021/09/05 08:08:31;;;;;;;13.82;11.13;;;29.20;82.10;;;;;;5051921;28;20449;-57
2021/09/05 08:10:56;;;;;;;13.32;10.95;;;29.00;80.70;;;;;;5048376;28;20033;-59
2021/09/05 08:13:22;;;;;;;15.80;11.18;;;29.60;79.20;;;;;;5047998;28;20036;-58
2021/09/05 08:15:47;;;;;;;16.65;12.38;;;29.30;79.70;;;;;;5045055;28;20148;-59
2021/09/05 08:18:13;;;;;;;18.83;11.90;;;29.20;79.40;;;;;;5020118;23;20057;-59
2021/09/05 08:20:38;;;;;;;14.27;10.65;;;29.10;78.60;;;;;;4990587;28;20030;-60
2021/09/05 08:23:04;;;;;;;13.15;10.60;;;28.80;80.00;;;;;;4992005;28;20027;-61
2021/09/05 08:25:30;;;;;;;12.82;11.27;;;29.30;79.20;;;;;;4990811;28;20039;-60
2021/09/05 08:27:55;;;;;;;13.25;10.85;;;28.30;79.30;;;;;;4984727;28;20115;-61
2021/09/05 08:30:21;;;;;;;13.25;11.60;;;28.50;80.40;;;;;;4989576;28;20371;-60
2021/09/05 08:32:47;;;;;;;14.93;11.70;;;28.10;81.90;;;;;;4990601;28;20065;-60
2021/09/05 08:35:12;;;;;;;14.88;10.88;;;27.50;80.60;;;;;;4990954;28;20026;-60
2021/09/05 08:37:39;;;;;;;14.73;11.02;;;27.50;82.40;;;;;;4992289;28;20527;-60
2021/09/05 08:40:06;;;;;;;14.48;11.25;;;28.10;81.70;;;;;;4985556;28;20026;-60
2021/09/05 08:42:33;;;;;;;17.20;11.65;;;27.90;81.90;;;;;;4991775;28;20102;-51
2021/09/05 08:45:00;;;;;;;14.57;11.05;;;27.60;82.30;;;;;;4992451;28;20026;-60
2021/09/05 08:47:31;;;;;;;12.73;10.07;;;28.30;81.10;;;;;;4992461;28;20672;-58
2021/09/05 08:49:56;;;;;;;14.68;11.43;;;28.70;80.60;;;;;;4990389;28;20034;-60
2021/09/05 08:52:22;;;;;;;12.43;10.75;;;28.50;81.50;;;;;;4990021;28;20034;-59
2021/09/05 08:54:47;;;;;;;13.95;10.48;;;28.70;80.70;;;;;;4991695;28;20023;-59
2021/09/05 08:57:13;;;;;;;13.27;11.05;;;28.60;80.60;;;;;;4990584;28;20035;-61
2021/09/05 08:59:38;;;;;;;14.05;12.38;;;28.60;81.70;;;;;;4991823;28;20034;-55
2021/09/05 09:02:04;;;;;;;12.55;10.55;;;28.70;80.40;;;;;;4987600;28;20050;-60
2021/09/05 09:04:38;;;;;;;13.25;10.77;;;29.70;79.70;;;;;;4977227;28;20039;-57
2021/09/05 09:07:11;;;;;;;14.95;11.25;;;30.00;79.20;;;;;;4985513;28;20406;-54
2021/09/05 09:09:43;;;;;;;12.10;10.00;;;29.30;77.50;;;;;;4991055;28;20053;-61
2021/09/05 09:12:08;;;;;;;12.43;10.75;;;29.30;79.40;;;;;;4983401;28;20092;-60
2021/09/05 09:14:43;;;;;;;13.45;10.73;;;29.10;78.80;;;;;;4991395;28;20661;-60
2021/09/05 09:17:11;;;;;;;13.13;10.48;;;29.20;78.10;;;;;;4989750;28;20037;-57
2021/09/05 09:19:37;;;;;;;12.27;10.30;;;29.40;77.70;;;;;;4983737;28;20065;-59
2021/09/05 09:22:06;;;;;;;13.55;9.95;;;29.30;79.10;;;;;;4990137;28;20041;-60
2021/09/05 09:24:42;;;;;;;11.57;10.38;;;29.30;78.30;;;;;;4991191;28;20068;-61
2021/09/05 09:27:08;;;;;;;13.10;10.52;;;29.20;78.80;;;;;;4988485;28;20026;-59
2021/09/05 09:29:35;;;;;;;15.43;10.80;;;29.50;79.30;;;;;;4990457;28;20105;-61
2021/09/05 09:32:07;;;;;;;10.90;9.10;;;30.10;77.30;;;;;;4990202;28;20091;-61
2021/09/05 09:34:47;;;;;;;12.15;9.32;;;29.60;76.90;;;;;;4991002;28;20485;-60
2021/09/05 09:37:22;;;;;;;11.05;9.90;;;29.40;77.20;;;;;;4991331;28;20089;-61
2021/09/05 09:39:58;;;;;;;12.48;9.95;;;29.10;78.10;;;;;;4989311;28;20034;-60
2021/09/05 09:42:34;;;;;;;15.30;9.50;;;29.30;78.80;;;;;;4991258;28;20543;-62
2021/09/05 09:45:01;;;;;;;10.68;8.93;;;29.80;78.50;;;;;;4990161;28;20041;-60
2021/09/05 09:47:37;;;;;;;14.18;9.57;;;29.70;77.00;;;;;;4988876;28;20065;-60
2021/09/05 09:50:03;;;;;;;11.25;10.13;;;29.40;78.10;;;;;;4990836;28;20022;-59
2021/09/05 09:52:30;;;;;;;15.05;9.50;;;29.20;79.60;;;;;;4988310;28;20026;-53
2021/09/05 09:54:57;;;;;;;15.02;10.50;;;29.00;79.30;;;;;;4990408;28;20041;-53
2021/09/05 09:57:22;;;;;;;13.85;9.43;;;28.90;79.40;;;;;;4989868;28;20046;-53
2021/09/05 09:59:48;;;;;;;13.05;10.20;;;28.40;79.10;;;;;;4988887;28;20057;-60
2021/09/05 10:02:18;;;;;;;15.15;10.52;;;28.10;81.00;;;;;;4989448;28;20050;-59
2021/09/05 10:04:49;;;;;;;13.15;10.00;;;27.70;81.30;;;;;;4976028;28;20093;-59
2021/09/05 10:07:17;;;;;;;12.95;10.20;;;27.80;83.60;;;;;;4971947;28;20105;-59
2021/09/05 10:09:44;;;;;;;13.82;10.18;;;28.00;83.00;;;;;;4989743;28;20047;-60
2021/09/05 10:12:11;;;;;;;12.65;9.70;;;28.10;82.30;;;;;;4991558;28;20030;-59
2021/09/05 10:14:38;;;;;;;13.07;9.80;;;27.70;83.90;;;;;;4988050;28;20081;-59
2021/09/05 10:17:06;;;;;;;15.35;9.88;;;27.80;82.60;;;;;;4981301;28;20081;-56
2021/09/05 10:19:36;;;;;;;18.35;10.38;;;27.80;82.70;;;;;;4970225;28;20027;-59
2021/09/05 10:22:03;;;;;;;13.38;9.73;;;27.80;82.00;;;;;;4985854;28;20037;-60
2021/09/05 10:24:45;;;;;;;12.63;10.45;;;27.40;83.90;;;;;;4984538;28;20122;-60
2021/09/05 10:27:11;;;;;;;14.07;10.90;;;27.40;83.50;;;;;;5001599;28;20057;-58
2021/09/05 10:29:37;;;;;;;12.63;9.70;;;27.40;82.80;;;;;;4994762;28;20073;-61
2021/09/05 10:32:03;;;;;;;12.30;9.52;;;27.60;83.20;;;;;;4994788;28;20046;-59
2021/09/05 10:34:38;;;;;;;40.95;12.25;;;27.30;85.80;;;;;;4988336;28;20026;-58
2021/09/05 10:37:10;;;;;;;16.40;10.00;;;27.00;86.00;;;;;;4988933;28;20069;-58
2021/09/05 10:39:36;;;;;;;13.53;9.17;;;27.10;87.50;;;;;;4990426;28;20045;-59
2021/09/05 10:42:01;;;;;;;13.13;9.30;;;27.00;85.00;;;;;;4980552;28;20026;-57
2021/09/05 10:44:27;;;;;;;13.40;8.57;;;27.00;84.70;;;;;;4993877;28;20029;-60
2021/09/05 10:46:55;;;;;;;12.98;8.40;;;27.10;86.60;;;;;;4998803;28;20038;-59
2021/09/05 10:49:40;;;;;;;12.25;8.18;;;26.90;84.10;;;;;;4991758;28;20042;-59
2021/09/05 10:52:07;;;;;;;13.13;8.18;;;27.00;84.60;;;;;;4996239;28;20450;-53
2021/09/05 10:54:43;;;;;;;9.77;7.45;;;26.90;84.20;;;;;;4989744;28;20041;-57
2021/09/05 10:57:08;;;;;;;12.25;7.43;;;27.20;82.80;;;;;;4997626;28;20036;-54
2021/09/05 10:59:35;;;;;;;10.90;8.30;;;27.00;84.20;;;;;;4999140;28;20030;-51
2021/09/05 11:02:04;;;;;;;11.75;8.05;;;27.10;85.80;;;;;;4996304;28;20030;-58
2021/09/05 11:04:43;;;;;;;14.15;8.55;;;27.00;83.70;;;;;;4974565;28;20042;-54
2021/09/05 11:07:29;;;;;;;10.18;8.27;;;26.80;83.80;;;;;;4992543;28;20034;-55
2021/09/05 11:09:55;;;;;;;11.90;7.35;;;26.60;82.60;;;;;;4993151;28;20027;-55
2021/09/05 11:12:41;;;;;;;10.57;7.15;;;26.60;84.60;;;;;;5002108;28;20076;-58
2021/09/05 11:15:10;;;;;;;9.07;6.68;;;26.70;82.80;;;;;;4998537;28;20026;-59
2021/09/05 11:17:36;;;;;;;9.65;7.25;;;26.80;84.30;;;;;;4999964;28;20668;-58
2021/09/05 11:20:02;;;;;;;9.02;7.15;;;26.80;83.10;;;;;;4992442;28;20033;-60
2021/09/05 11:22:37;;;;;;;11.07;7.25;;;26.90;84.50;;;;;;4997788;28;20484;-59
2021/09/05 11:25:20;;;;;;;12.98;7.20;;;26.80;83.60;;;;;;4995589;28;20040;-59
2021/09/05 11:27:53;;;;;;;14.18;7.35;;;26.70;82.20;;;;;;4993941;28;20081;-59
2021/09/05 11:30:19;;;;;;;9.30;7.32;;;26.50;82.50;;;;;;4995988;28;20019;-59
2021/09/05 11:32:46;;;;;;;12.13;7.43;;;26.30;82.70;;;;;;4996737;28;20041;-58
2021/09/05 11:35:12;;;;;;;11.35;8.25;;;26.20;83.90;;;;;;4994974;28;20029;-59
2021/09/05 11:37:43;;;;;;;9.10;7.03;;;26.10;84.10;;;;;;4989427;28;20034;-59
2021/09/05 11:40:14;;;;;;;11.15;7.57;;;26.00;86.10;;;;;;4987378;28;20034;-59
2021/09/05 11:42:54;;;;;;;10.57;7.97;;;26.20;84.80;;;;;;5000306;28;20022;-50
2021/09/05 11:45:23;;;;;;;10.15;7.50;;;26.10;86.30;;;;;;4995754;28;20143;-58
2021/09/05 11:48:02;;;;;;;7.88;6.45;;;26.10;84.80;;;;;;4990300;28;20026;-57
2021/09/05 11:50:29;;;;;;;9.27;7.53;;;26.10;88.70;;;;;;4997335;28;20565;-57
2021/09/05 11:52:55;;;;;;;8.65;6.82;;;26.00;85.00;;;;;;4991163;28;20033;-57
2021/09/05 11:55:21;;;;;;;15.50;7.68;;;26.00;84.80;;;;;;4993766;28;20026;-58
2021/09/05 11:57:54;;;;;;;9.38;7.05;;;26.00;84.40;;;;;;4993719;28;20035;-54
2021/09/05 12:00:31;;;;;;;10.02;7.53;;;26.00;84.90;;;;;;4985494;28;20037;-58
2021/09/05 12:02:58;;;;;;;9.65;7.07;;;26.00;85.80;;;;;;5003947;28;20034;-61
2021/09/05 12:05:24;;;;;;;12.13;7.13;;;26.00;85.30;;;;;;4979032;28;20038;-51
2021/09/05 12:07:50;;;;;;;10.68;7.30;;;26.00;83.60;;;;;;5001245;28;20071;-59
2021/09/05 12:10:19;;;;;;;8.90;7.35;;;26.00;85.50;;;;;;4998936;28;20109;-56
2021/09/05 12:13:04;;;;;;;10.95;7.25;;;26.00;84.30;;;;;;4990132;28;20489;-58
2021/09/05 12:15:33;;;;;;;12.18;6.82;;;26.00;88.00;;;;;;4987303;28;20025;-60
2021/09/05 12:17:59;;;;;;;10.32;6.72;;;26.00;84.70;;;;;;4989040;28;20026;-61
2021/09/05 12:20:25;;;;;;;9.60;6.18;;;25.90;82.90;;;;;;4986114;28;20029;-60
2021/09/05 12:22:52;;;;;;;9.93;6.85;;;25.70;83.00;;;;;;4982393;28;20411;-59
2021/09/05 12:25:23;;;;;;;10.30;6.97;;;25.80;83.20;;;;;;4986787;28;20489;-60
2021/09/05 12:28:07;;;;;;;10.38;6.40;;;25.90;84.90;;;;;;4990186;28;20125;-58
2021/09/05 12:30:40;;;;;;;9.93;6.78;;;25.90;84.70;;;;;;4983713;28;20025;-60